Time;durP1;ratioP1;P1;durP2;ratioP2;P2;SDS_P1;SDS_P2;PMS_P1;PMS_P2;Temp;Humidity;BMP_temperature;BMP_pressure;BME280_temperature;BME280_humidity;BME280_pressure;Samples;Min_cycle;Max_cycle;Signal;HPM_P1;HPM_P2
2022/11/07 00:01:54;;;;;;;1.80;1.70;;;12.40;99.90;;;;;;5008979;28;20524;-83
2022/11/07 00:04:34;;;;;;;1.50;1.40;;;12.40;99.90;;;;;;5005048;28;20466;-84
2022/11/07 00:07:34;;;;;;;1.90;1.30;;;12.40;99.90;;;;;;4993707;28;20577;-83
2022/11/07 00:13:05;;;;;;;2.77;1.90;;;12.40;99.90;;;;;;4926353;29;20467;-84
2022/11/07 00:15:35;;;;;;;1.43;1.20;;;12.40;99.90;;;;;;4926144;29;20470;-83
2022/11/07 00:18:06;;;;;;;1.87;1.70;;;12.40;99.90;;;;;;4920183;29;20464;-82
2022/11/07 00:20:35;;;;;;;2.87;1.60;;;12.30;99.90;;;;;;4928779;29;20460;-83
2022/11/07 00:23:06;;;;;;;1.20;1.10;;;12.40;99.90;;;;;;4929971;29;20488;-82
2022/11/07 00:25:52;;;;;;;1.10;1.10;;;12.30;99.90;;;;;;4930050;29;20467;-85
2022/11/07 00:28:27;;;;;;;3.40;1.50;;;12.30;99.90;;;;;;4929926;29;20523;-85
2022/11/07 00:31:02;;;;;;;1.37;1.17;;;12.30;99.90;;;;;;4930010;29;20555;-84
2022/11/07 00:33:44;;;;;;;1.23;1.13;;;12.30;99.90;;;;;;4928714;29;21762;-83
2022/11/07 00:36:42;;;;;;;1.17;1.17;;;12.40;99.90;;;;;;4933283;29;20459;-82
2022/11/07 00:39:18;;;;;;;1.73;1.00;;;12.30;99.90;;;;;;4917384;29;20458;-83
2022/11/07 00:41:51;;;;;;;2.30;1.37;;;12.40;99.90;;;;;;4934673;29;20504;-83
2022/11/07 00:44:21;;;;;;;1.30;1.20;;;12.40;99.90;;;;;;4934581;29;20477;-85
2022/11/07 00:47:13;;;;;;;3.37;1.40;;;12.40;99.90;;;;;;4935434;29;20478;-83
2022/11/07 00:49:39;;;;;;;1.40;1.30;;;12.30;99.90;;;;;;4932330;29;20487;-84
2022/11/07 00:52:12;;;;;;;1.73;1.30;;;12.30;99.90;;;;;;4928811;29;20480;-83
2022/11/07 00:54:47;;;;;;;1.30;1.20;;;12.30;99.90;;;;;;4931697;29;20468;-85
2022/11/07 00:57:14;;;;;;;2.00;1.00;;;12.30;99.90;;;;;;4926239;29;20461;-83
2022/11/07 00:59:44;;;;;;;1.27;1.00;;;12.30;99.90;;;;;;4927979;29;20457;-83
2022/11/07 01:02:19;;;;;;;1.20;1.10;;;12.30;99.90;;;;;;4912824;29;20514;-85
2022/11/07 01:05:11;;;;;;;2.17;1.63;;;12.40;99.90;;;;;;4927808;29;20466;-82
2022/11/07 01:07:44;;;;;;;1.50;1.20;;;12.40;99.90;;;;;;4926937;29;20555;-82
2022/11/07 01:10:11;;;;;;;1.90;1.27;;;12.40;99.90;;;;;;4927467;29;20497;-82
2022/11/07 01:12:43;;;;;;;1.13;1.10;;;12.30;99.90;;;;;;4954327;29;20498;-82
2022/11/07 01:15:23;;;;;;;1.20;1.10;;;12.50;99.90;;;;;;4949132;29;20486;-85
2022/11/07 01:17:56;;;;;;;1.60;1.20;;;12.50;99.90;;;;;;4948165;29;21025;-83
2022/11/07 01:20:26;;;;;;;1.57;1.47;;;12.40;99.90;;;;;;4947395;28;20474;-83
2022/11/07 01:22:58;;;;;;;1.47;1.37;;;12.40;99.90;;;;;;4950481;29;20460;-85
2022/11/07 01:25:30;;;;;;;1.20;1.10;;;12.50;99.90;;;;;;4949022;29;20530;-83
2022/11/07 01:28:06;;;;;;;1.20;1.10;;;12.50;99.90;;;;;;4930171;29;20468;-82
2022/11/07 01:30:46;;;;;;;2.73;1.20;;;12.50;99.90;;;;;;4950086;28;20936;-83
2022/11/07 01:33:30;;;;;;;1.10;1.00;;;12.60;99.90;;;;;;4945380;28;20492;-84
2022/11/07 01:36:02;;;;;;;2.10;1.20;;;12.60;99.90;;;;;;4951055;29;20456;-84
2022/11/07 01:38:51;;;;;;;1.90;1.43;;;12.50;99.90;;;;;;4949937;29;20460;-84
2022/11/07 01:41:28;;;;;;;1.40;1.27;;;12.60;99.90;;;;;;4962404;28;20521;-84
2022/11/07 01:44:05;;;;;;;3.83;1.30;;;12.70;99.90;;;;;;4965691;28;20502;-84
2022/11/07 01:46:46;;;;;;;1.70;1.60;;;12.70;99.90;;;;;;4950593;29;20528;-84
2022/11/07 01:49:21;;;;;;;2.90;1.50;;;12.60;99.90;;;;;;4965634;29;20479;-83
2022/11/07 01:52:14;;;;;;;1.53;1.40;;;12.60;99.90;;;;;;4965362;28;20487;-84
2022/11/07 01:54:47;;;;;;;1.80;1.53;;;12.50;99.90;;;;;;4950114;29;20463;-84
2022/11/07 01:57:31;;;;;;;1.63;1.53;;;12.60;99.90;;;;;;4958752;29;20468;-85
2022/11/07 02:00:04;;;;;;;3.40;1.63;;;12.50;99.90;;;;;;4954609;29;20479;-83
2022/11/07 02:02:37;;;;;;;1.37;0.93;;;12.50;99.90;;;;;;4956653;28;20471;-84
2022/11/07 02:05:18;;;;;;;1.57;1.20;;;12.30;99.90;;;;;;4959474;29;20459;-83
2022/11/07 02:08:02;;;;;;;2.90;2.13;;;12.40;99.90;;;;;;4953343;28;20453;-84
2022/11/07 02:10:40;;;;;;;2.53;1.40;;;12.40;99.90;;;;;;4954812;28;20469;-84
2022/11/07 02:13:28;;;;;;;1.40;1.20;;;12.40;99.90;;;;;;4937125;29;21326;-84
2022/11/07 02:16:10;;;;;;;1.43;1.33;;;12.50;99.90;;;;;;4945400;29;22141;-83
2022/11/07 02:18:42;;;;;;;2.40;1.77;;;12.40;99.90;;;;;;4950925;28;20891;-82
2022/11/07 02:21:26;;;;;;;2.30;1.90;;;12.30;99.90;;;;;;4953233;29;20484;-85
2022/11/07 02:24:20;;;;;;;3.17;1.63;;;12.40;99.90;;;;;;4952968;29;20900;-85
2022/11/07 02:26:55;;;;;;;1.87;1.50;;;12.50;99.90;;;;;;4939436;29;20464;-83
2022/11/07 02:29:28;;;;;;;1.63;1.53;;;12.40;99.90;;;;;;4952640;28;20512;-85
2022/11/07 02:32:08;;;;;;;1.93;1.40;;;12.40;99.90;;;;;;4949178;28;20491;-83
2022/11/07 02:34:59;;;;;;;2.43;1.90;;;12.30;99.90;;;;;;4949640;29;20494;-85
2022/11/07 02:37:40;;;;;;;1.73;1.50;;;12.20;99.90;;;;;;4953495;28;20532;-84
2022/11/07 02:40:20;;;;;;;4.03;1.57;;;12.10;99.90;;;;;;4949776;29;20475;-84
2022/11/07 02:43:07;;;;;;;4.20;1.77;;;12.10;99.90;;;;;;4937858;29;20571;-84
2022/11/07 02:45:47;;;;;;;3.00;1.90;;;12.20;99.90;;;;;;4954356;29;20522;-84
2022/11/07 02:48:33;;;;;;;2.27;1.57;;;12.20;99.90;;;;;;4953464;28;20483;-83
2022/11/07 02:51:07;;;;;;;5.93;2.20;;;12.30;99.90;;;;;;4947676;29;20475;-85
2022/11/07 02:53:43;;;;;;;3.07;1.70;;;12.30;99.90;;;;;;4951626;29;20486;-84
2022/11/07 02:56:21;;;;;;;2.27;1.80;;;12.30;99.90;;;;;;4958363;28;20466;-86
2022/11/07 02:58:59;;;;;;;1.90;1.73;;;12.30;99.90;;;;;;4950848;29;20478;-83
2022/11/07 03:01:34;;;;;;;2.20;1.80;;;12.40;99.90;;;;;;4952366;28;20496;-84
2022/11/07 03:04:04;;;;;;;2.40;1.60;;;12.30;99.90;;;;;;4950925;29;20458;-84
2022/11/07 03:06:30;;;;;;;2.10;1.90;;;12.30;99.90;;;;;;4952651;28;20470;-85
2022/11/07 03:09:08;;;;;;;2.77;2.10;;;12.40;99.90;;;;;;4952151;29;20484;-85
2022/11/07 03:11:41;;;;;;;4.90;1.90;;;12.40;99.90;;;;;;4934719;29;21314;-84
2022/11/07 03:14:11;;;;;;;2.20;1.53;;;12.30;99.90;;;;;;4949552;29;20529;-84
2022/11/07 03:16:40;;;;;;;3.40;1.57;;;12.20;99.90;;;;;;4949694;28;20970;-83
2022/11/07 03:19:11;;;;;;;1.80;1.33;;;12.20;99.90;;;;;;4951494;28;20464;-84
2022/11/07 03:21:40;;;;;;;1.50;1.40;;;12.20;99.90;;;;;;4951790;28;20491;-84
2022/11/07 03:24:20;;;;;;;6.30;1.90;;;12.20;99.90;;;;;;4951166;29;20458;-85
2022/11/07 03:27:04;;;;;;;2.73;1.53;;;12.20;99.90;;;;;;4920393;29;20479;-85
2022/11/07 03:29:37;;;;;;;3.70;1.70;;;12.20;99.90;;;;;;4937229;29;20495;-85
2022/11/07 03:32:07;;;;;;;5.33;1.63;;;12.10;99.90;;;;;;4954537;28;20559;-83
2022/11/07 03:37:38;;;;;;;2.53;1.63;;;12.00;99.90;;;;;;4925633;29;20448;-84
2022/11/07 03:40:11;;;;;;;3.40;1.50;;;12.10;99.90;;;;;;4950979;28;20499;-84
2022/11/07 03:45:27;;;;;;;4.20;1.83;;;12.00;99.90;;;;;;4974598;28;20490;-84
2022/11/07 03:48:04;;;;;;;2.67;1.50;;;12.00;99.90;;;;;;4956822;28;20488;-83
2022/11/07 03:50:38;;;;;;;1.90;1.50;;;11.90;99.90;;;;;;4960619;28;20480;-83
2022/11/07 03:53:38;;;;;;;2.23;1.40;;;12.00;99.90;;;;;;4973819;28;20446;-83
2022/11/07 03:56:17;;;;;;;5.07;1.67;;;12.00;99.90;;;;;;4960671;28;20468;-83
2022/11/07 03:59:02;;;;;;;2.30;1.77;;;12.20;99.90;;;;;;4959220;28;20464;-84
2022/11/07 04:01:35;;;;;;;7.87;1.70;;;12.10;99.90;;;;;;4975848;28;20896;-84
2022/11/07 04:04:08;;;;;;;3.53;1.80;;;12.10;99.90;;;;;;4955926;28;20475;-85
2022/11/07 04:06:51;;;;;;;3.67;2.10;;;12.10;99.90;;;;;;4973442;28;21905;-85
2022/11/07 04:09:29;;;;;;;2.87;2.00;;;12.00;99.90;;;;;;4959452;28;20515;-85
2022/11/07 04:17:49;;;;;;;6.80;1.80;;;11.90;99.90;;;;;;4973709;28;20455;-86
2022/11/07 04:20:32;;;;;;;4.80;1.83;;;12.10;99.90;;;;;;4957193;28;20457;-85
2022/11/07 04:23:22;;;;;;;4.60;1.50;;;12.00;99.90;;;;;;4958680;28;21026;-85
2022/11/07 04:28:49;;;;;;;1.70;1.60;;;12.20;99.90;;;;;;4974678;28;20463;-85
2022/11/07 04:31:29;;;;;;;4.80;2.37;;;12.20;99.90;;;;;;4973545;28;20485;-83
2022/11/07 04:34:24;;;;;;;2.30;1.70;;;12.10;99.90;;;;;;4977072;28;20458;-84
2022/11/07 04:36:55;;;;;;;2.53;1.60;;;12.10;99.90;;;;;;4979965;28;20564;-84
2022/11/07 04:39:34;;;;;;;2.10;1.80;;;12.10;99.90;;;;;;4963588;28;20461;-84
2022/11/07 04:42:02;;;;;;;5.57;2.60;;;11.80;99.90;;;;;;4960509;28;20488;-86
2022/11/07 04:44:38;;;;;;;4.83;2.23;;;11.90;99.90;;;;;;4964436;28;20821;-86
2022/11/07 04:47:05;;;;;;;3.00;2.40;;;11.90;99.90;;;;;;4962709;28;20455;-85
2022/11/07 04:49:41;;;;;;;3.00;2.07;;;11.90;99.90;;;;;;4978073;28;20589;-84
2022/11/07 04:52:17;;;;;;;3.43;2.10;;;11.90;99.90;;;;;;4961704;28;20536;-84
2022/11/07 04:54:48;;;;;;;6.33;1.90;;;12.10;99.90;;;;;;4978565;28;20457;-84
2022/11/07 04:57:18;;;;;;;2.20;2.10;;;12.10;99.90;;;;;;4977633;28;20462;-85
2022/11/07 04:59:58;;;;;;;3.33;2.23;;;12.20;99.90;;;;;;4961537;28;20922;-85
2022/11/07 05:02:36;;;;;;;2.77;2.10;;;12.30;99.90;;;;;;4960354;28;20490;-85
2022/11/07 05:05:09;;;;;;;4.60;1.90;;;12.40;99.90;;;;;;4964005;28;20462;-85
2022/11/07 05:07:42;;;;;;;3.23;2.57;;;12.40;99.90;;;;;;4979802;28;20467;-86
2022/11/07 05:10:22;;;;;;;4.93;2.00;;;12.40;99.90;;;;;;4974308;28;20486;-84
2022/11/07 05:12:55;;;;;;;3.10;1.97;;;12.40;99.90;;;;;;4962787;28;20457;-84
2022/11/07 05:15:34;;;;;;;7.67;2.20;;;12.40;99.90;;;;;;4974983;28;20451;-83
2022/11/07 05:18:10;;;;;;;4.40;2.13;;;12.40;99.90;;;;;;4995344;28;20467;-83
2022/11/07 05:20:47;;;;;;;6.20;2.00;;;12.40;99.90;;;;;;4968286;28;20456;-84
2022/11/07 05:23:20;;;;;;;5.60;2.20;;;12.40;99.90;;;;;;4968667;28;20894;-83
2022/11/07 05:25:51;;;;;;;3.30;1.47;;;12.30;99.90;;;;;;4971243;28;20467;-83
2022/11/07 05:28:22;;;;;;;3.13;1.87;;;12.30;99.90;;;;;;4958269;28;20924;-83
2022/11/07 05:30:59;;;;;;;2.20;1.47;;;12.30;99.90;;;;;;4974985;28;20940;-84
2022/11/07 05:33:26;;;;;;;2.43;1.40;;;12.40;99.90;;;;;;4973850;28;20468;-85
2022/11/07 05:36:10;;;;;;;4.50;1.60;;;12.40;99.90;;;;;;4974668;28;20463;-84
2022/11/07 05:38:38;;;;;;;3.83;2.07;;;12.50;99.90;;;;;;4955154;28;20462;-84
2022/11/07 05:41:05;;;;;;;2.97;1.83;;;12.50;99.90;;;;;;4971726;28;20473;-83
2022/11/07 05:43:31;;;;;;;4.40;1.83;;;12.50;99.90;;;;;;4972471;28;21041;-83
2022/11/07 05:46:01;;;;;;;4.13;1.77;;;12.50;99.90;;;;;;4972877;28;20463;-84
2022/11/07 05:48:29;;;;;;;3.30;2.07;;;12.50;99.90;;;;;;4952505;28;20447;-84
2022/11/07 05:50:57;;;;;;;7.63;1.97;;;12.60;99.90;;;;;;4955062;28;20507;-84
2022/11/07 05:53:25;;;;;;;5.27;1.77;;;12.60;99.90;;;;;;4971317;28;20447;-84
2022/11/07 05:55:52;;;;;;;4.60;1.97;;;12.70;99.90;;;;;;4954934;28;20446;-85
2022/11/07 05:58:19;;;;;;;4.17;1.50;;;12.70;99.90;;;;;;4953433;28;20458;-82
2022/11/07 06:00:51;;;;;;;2.53;1.20;;;12.70;99.90;;;;;;4955450;28;20483;-82
2022/11/07 06:03:24;;;;;;;5.63;1.70;;;12.70;99.90;;;;;;4953820;28;20569;-86
2022/11/07 06:05:57;;;;;;;5.27;1.80;;;12.70;99.90;;;;;;4957266;28;20458;-85
2022/11/07 06:08:30;;;;;;;3.53;1.80;;;12.70;99.90;;;;;;4974543;28;20470;-84
2022/11/07 06:10:57;;;;;;;3.73;1.10;;;12.80;99.90;;;;;;4972516;28;20588;-86
2022/11/07 06:13:23;;;;;;;2.20;1.20;;;12.90;99.90;;;;;;4952718;28;20471;-85
2022/11/07 06:15:50;;;;;;;3.03;1.50;;;12.90;99.90;;;;;;4972759;28;20463;-85
2022/11/07 06:18:22;;;;;;;4.30;1.70;;;12.90;99.90;;;;;;4973099;28;20492;-85
2022/11/07 06:20:49;;;;;;;3.50;1.63;;;12.90;99.90;;;;;;4956389;28;20484;-83
2022/11/07 06:23:34;;;;;;;6.77;1.57;;;12.80;99.90;;;;;;4972783;28;20454;-86
2022/11/07 06:26:09;;;;;;;5.90;1.93;;;12.90;99.90;;;;;;4957568;28;20717;-85
2022/11/07 06:28:38;;;;;;;6.60;1.30;;;12.90;99.90;;;;;;4954517;28;20455;-86
2022/11/07 06:31:18;;;;;;;4.10;1.60;;;13.20;99.90;;;;;;4976999;28;21035;-85
2022/11/07 06:33:53;;;;;;;5.80;1.80;;;13.10;99.90;;;;;;4958265;28;20446;-82
2022/11/07 06:36:22;;;;;;;8.10;1.77;;;13.10;99.90;;;;;;4956006;28;20466;-86
2022/11/07 06:39:00;;;;;;;3.70;2.30;;;13.20;99.90;;;;;;4959422;28;20541;-83
2022/11/07 06:41:38;;;;;;;5.20;1.37;;;13.20;99.90;;;;;;4960893;28;20490;-85
2022/11/07 06:44:05;;;;;;;6.00;1.90;;;13.30;99.90;;;;;;4973558;28;20469;-85
2022/11/07 06:46:34;;;;;;;5.70;1.90;;;13.40;99.90;;;;;;4953135;28;21917;-84
2022/11/07 06:49:24;;;;;;;;;;;;;;;;;;;;;
2022/11/07 06:51:53;;;;;;;4.30;1.80;;;13.30;99.90;;;;;;4972435;28;20464;-82
2022/11/07 06:54:28;;;;;;;3.67;1.90;;;13.40;99.90;;;;;;4955220;28;20552;-86
2022/11/07 06:56:55;;;;;;;3.57;1.93;;;13.50;99.90;;;;;;4954767;28;20482;-85
2022/11/07 07:00:27;;;;;;;4.20;2.10;;;13.40;99.90;;;;;;4958986;28;20459;-85
2022/11/07 07:02:58;;;;;;;4.93;2.10;;;13.50;99.90;;;;;;4944266;28;20487;-82
2022/11/07 07:05:39;;;;;;;3.80;1.50;;;13.60;99.90;;;;;;4949717;28;20450;-84
2022/11/07 07:08:13;;;;;;;3.13;1.60;;;13.50;99.90;;;;;;4945070;28;20484;-83
2022/11/07 07:10:51;;;;;;;3.80;1.50;;;13.60;99.90;;;;;;4972765;28;21511;-83
2022/11/07 07:13:36;;;;;;;5.70;2.20;;;13.70;99.90;;;;;;4956696;28;21066;-83
2022/11/07 07:16:22;;;;;;;4.73;1.97;;;13.70;99.90;;;;;;4953484;28;20486;-82
2022/11/07 07:19:07;;;;;;;3.23;1.83;;;13.60;99.90;;;;;;4985050;28;20485;-84
2022/11/07 07:21:48;;;;;;;5.57;3.37;;;13.70;99.90;;;;;;4954023;28;20809;-84
2022/11/07 07:24:24;;;;;;;5.20;2.10;;;13.70;99.90;;;;;;4955731;28;20542;-84
2022/11/07 07:27:00;;;;;;;3.60;1.63;;;13.60;99.90;;;;;;4958769;28;20471;-86
2022/11/07 07:29:38;;;;;;;5.80;1.70;;;13.70;99.90;;;;;;4961049;28;20553;-85
2022/11/07 07:32:06;;;;;;;6.60;2.40;;;13.70;99.90;;;;;;4957657;28;20492;-85
2022/11/07 07:34:40;;;;;;;3.50;1.90;;;13.80;99.90;;;;;;4977679;28;20450;-83
2022/11/07 07:37:18;;;;;;;3.20;1.60;;;13.80;99.90;;;;;;4955112;28;20459;-82
2022/11/07 07:39:51;;;;;;;4.23;1.63;;;13.80;99.90;;;;;;4958548;28;20592;-85
2022/11/07 07:42:27;;;;;;;4.83;2.00;;;13.90;99.90;;;;;;4956797;28;20473;-85
2022/11/07 07:45:07;;;;;;;3.07;1.40;;;13.90;99.90;;;;;;4955765;28;20478;-85
2022/11/07 07:47:40;;;;;;;4.70;1.30;;;14.00;99.90;;;;;;4956307;28;20511;-83
2022/11/07 07:50:11;;;;;;;5.37;1.53;;;14.00;99.90;;;;;;4972744;28;20557;-85
2022/11/07 07:52:45;;;;;;;3.57;1.63;;;14.00;99.90;;;;;;4955261;28;21769;-84
2022/11/07 07:55:18;;;;;;;4.27;1.70;;;14.10;99.90;;;;;;4956393;28;20475;-86
2022/11/07 07:57:57;;;;;;;2.93;1.43;;;14.20;99.90;;;;;;4957961;28;20851;-85
2022/11/07 08:00:28;;;;;;;4.03;1.83;;;14.10;99.90;;;;;;4943592;28;20470;-84
2022/11/07 08:03:11;;;;;;;3.10;1.40;;;14.20;99.90;;;;;;4965448;28;20801;-85
2022/11/07 08:09:45;;;;;;;4.20;2.03;;;14.20;99.90;;;;;;4886475;29;20451;-83
2022/11/07 08:12:20;;;;;;;2.90;1.50;;;14.30;99.90;;;;;;4865577;29;20545;-84
2022/11/07 08:14:52;;;;;;;7.17;1.50;;;14.40;99.90;;;;;;4909010;29;20474;-84
2022/11/07 08:17:32;;;;;;;5.43;1.57;;;14.30;99.90;;;;;;4926803;29;20447;-82
2022/11/07 08:20:09;;;;;;;2.43;1.37;;;14.30;99.90;;;;;;4912310;29;20457;-85
2022/11/07 08:22:43;;;;;;;2.40;1.40;;;14.30;99.90;;;;;;4926717;29;20812;-84
2022/11/07 08:25:22;;;;;;;2.00;1.00;;;14.40;99.90;;;;;;4919815;29;20453;-86
2022/11/07 08:27:56;;;;;;;6.13;1.33;;;14.50;99.90;;;;;;4887235;29;20457;-83
2022/11/07 08:30:30;;;;;;;3.20;1.50;;;14.40;99.90;;;;;;4900258;29;20489;-83
2022/11/07 08:33:01;;;;;;;3.87;1.30;;;14.30;99.90;;;;;;4888766;29;20466;-84
2022/11/07 08:35:31;;;;;;;4.10;1.30;;;14.40;99.90;;;;;;4908733;29;20470;-85
2022/11/07 08:41:34;;;;;;;4.23;1.40;;;14.30;99.90;;;;;;4842713;29;21324;-84
2022/11/07 08:44:20;;;;;;;5.40;1.87;;;14.40;99.90;;;;;;4894469;29;20484;-83
2022/11/07 08:46:57;;;;;;;6.60;1.70;;;14.50;99.90;;;;;;4909644;29;20465;-86
2022/11/07 08:49:33;;;;;;;4.60;1.93;;;14.60;99.90;;;;;;4894601;29;20464;-85
2022/11/07 08:52:14;;;;;;;2.60;1.57;;;14.60;99.90;;;;;;4908698;29;20630;-85
2022/11/07 08:55:03;;;;;;;5.33;1.60;;;14.70;99.90;;;;;;4905492;29;21060;-84
2022/11/07 08:57:42;;;;;;;4.20;1.70;;;14.70;99.90;;;;;;4873164;29;20472;-84
2022/11/07 09:00:26;;;;;;;7.87;1.50;;;14.60;99.90;;;;;;4940656;28;20461;-84
2022/11/07 09:02:55;;;;;;;2.87;1.57;;;14.60;99.90;;;;;;4995507;23;21083;-83
2022/11/07 09:05:46;;;;;;;4.63;1.67;;;14.60;99.90;;;;;;4999150;28;20447;-84
2022/11/07 09:08:13;;;;;;;2.20;1.33;;;14.70;99.90;;;;;;4966616;28;20870;-83
2022/11/07 09:10:47;;;;;;;5.00;1.80;;;14.80;99.90;;;;;;4969904;28;20478;-83
2022/11/07 09:13:22;;;;;;;2.60;1.20;;;14.80;99.90;;;;;;4971744;28;20452;-83
2022/11/07 09:16:02;;;;;;;3.13;1.47;;;14.90;99.90;;;;;;4970728;28;20454;-84
2022/11/07 09:18:39;;;;;;;3.03;1.27;;;15.00;99.90;;;;;;4969816;28;20500;-84
2022/11/07 09:21:11;;;;;;;4.60;1.80;;;15.10;99.90;;;;;;4986875;28;20490;-85
2022/11/07 09:23:56;;;;;;;3.73;1.70;;;15.20;99.90;;;;;;4972344;28;20944;-85
2022/11/07 09:26:36;;;;;;;4.07;1.43;;;15.20;99.90;;;;;;4970108;28;20481;-83
2022/11/07 09:29:05;;;;;;;1.37;1.07;;;15.00;99.90;;;;;;4971592;28;20469;-83
2022/11/07 09:31:34;;;;;;;2.60;1.30;;;14.90;99.90;;;;;;4970600;28;20493;-84
2022/11/07 09:34:06;;;;;;;1.60;1.20;;;15.10;99.90;;;;;;4970650;28;20968;-84
2022/11/07 09:36:33;;;;;;;2.80;1.13;;;15.10;99.90;;;;;;4988463;28;20500;-84
2022/11/07 09:39:00;;;;;;;2.80;1.20;;;15.10;99.90;;;;;;4987746;28;20450;-85
2022/11/07 09:41:40;;;;;;;2.40;1.30;;;15.20;99.90;;;;;;4988261;28;20505;-84
2022/11/07 09:44:28;;;;;;;3.50;1.43;;;15.20;99.90;;;;;;4985091;28;20962;-85
2022/11/07 09:47:18;;;;;;;2.90;1.50;;;15.20;99.90;;;;;;4985357;28;20450;-84
2022/11/07 09:49:58;;;;;;;2.30;1.00;;;15.30;99.90;;;;;;4970468;28;20469;-84
2022/11/07 09:52:41;;;;;;;2.30;1.00;;;15.30;99.90;;;;;;4987625;28;20532;-83
2022/11/07 09:55:13;;;;;;;4.03;1.10;;;15.20;99.90;;;;;;4986708;28;20450;-84
2022/11/07 09:57:41;;;;;;;2.33;1.37;;;15.40;99.90;;;;;;4969364;28;20450;-85
2022/11/07 10:00:15;;;;;;;3.37;1.53;;;15.50;99.90;;;;;;4989602;28;20482;-84
2022/11/07 10:02:53;;;;;;;4.07;1.67;;;15.50;99.90;;;;;;4990547;28;20508;-84
2022/11/07 10:05:40;;;;;;;4.10;1.90;;;15.50;99.90;;;;;;4968593;28;20548;-84
2022/11/07 10:08:31;;;;;;;4.90;2.00;;;15.40;99.90;;;;;;4987557;28;20461;-84
2022/11/07 10:11:22;;;;;;;4.60;1.50;;;15.60;99.90;;;;;;4970124;28;22193;-85
2022/11/07 10:14:03;;;;;;;4.17;2.00;;;15.60;99.90;;;;;;4982651;28;20492;-84
2022/11/07 10:16:42;;;;;;;17.83;2.47;;;15.70;99.90;;;;;;4971123;28;20529;-82
2022/11/07 10:19:20;;;;;;;2.93;1.33;;;15.40;99.90;;;;;;4969029;28;20494;-84
2022/11/07 10:21:59;;;;;;;3.93;1.63;;;15.30;99.90;;;;;;4971393;28;20478;-84
2022/11/07 10:25:01;;;;;;;1.07;0.93;;;15.60;99.90;;;;;;4971769;28;20501;-84
2022/11/07 10:27:27;;;;;;;4.43;1.37;;;15.80;99.90;;;;;;4940952;28;20458;-84
2022/11/07 10:29:55;;;;;;;3.57;1.40;;;15.70;99.90;;;;;;4987519;28;20467;-82
2022/11/07 10:32:27;;;;;;;5.40;1.80;;;15.90;99.90;;;;;;4953120;28;20528;-84
2022/11/07 10:35:26;;;;;;;2.03;1.13;;;15.80;99.90;;;;;;4970906;28;20526;-84
2022/11/07 10:37:55;;;;;;;3.13;1.70;;;15.90;99.90;;;;;;4962948;28;20538;-83
2022/11/07 10:40:27;;;;;;;2.30;0.90;;;16.00;99.90;;;;;;4974520;28;20439;-83
2022/11/07 10:42:54;;;;;;;2.10;1.07;;;16.00;99.90;;;;;;4988051;28;20470;-83
2022/11/07 10:45:27;;;;;;;2.90;1.10;;;16.20;99.90;;;;;;4979181;28;20485;-82
2022/11/07 10:48:01;;;;;;;4.97;1.43;;;16.30;99.90;;;;;;4995457;28;20465;-84
2022/11/07 10:50:31;;;;;;;2.53;1.20;;;16.40;99.70;;;;;;4975445;28;20468;-83
2022/11/07 10:53:08;;;;;;;2.87;0.90;;;16.50;99.40;;;;;;4973945;28;20489;-82
2022/11/07 10:55:44;;;;;;;2.10;1.27;;;16.60;99.10;;;;;;4972918;28;20461;-85
2022/11/07 10:58:25;;;;;;;1.03;0.90;;;16.60;98.90;;;;;;4970371;28;20457;-85
2022/11/07 11:01:02;;;;;;;3.03;0.67;;;16.70;98.70;;;;;;4966580;28;20501;-84
2022/11/07 11:03:42;;;;;;;1.90;1.00;;;16.70;98.50;;;;;;4984281;28;20462;-85
2022/11/07 11:06:23;;;;;;;1.10;0.80;;;16.60;98.70;;;;;;4968892;28;20463;-84
2022/11/07 11:08:51;;;;;;;4.43;1.20;;;16.20;99.30;;;;;;4970899;28;20470;-84
2022/11/07 11:11:31;;;;;;;4.20;1.00;;;16.20;99.90;;;;;;4968329;28;20503;-84
2022/11/07 11:14:24;;;;;;;1.93;0.83;;;16.30;99.90;;;;;;4968962;28;20954;-83
2022/11/07 11:16:55;;;;;;;1.37;0.70;;;16.70;98.70;;;;;;4985126;28;21595;-84
2022/11/07 11:19:25;;;;;;;2.10;0.90;;;16.60;98.70;;;;;;4986354;28;20461;-84
2022/11/07 11:21:56;;;;;;;1.53;0.70;;;16.70;98.90;;;;;;4968940;28;20481;-84
2022/11/07 11:24:31;;;;;;;2.30;0.77;;;16.50;98.80;;;;;;4969715;28;20461;-84
2022/11/07 11:28:00;;;;;;;1.50;1.40;;;16.60;99.00;;;;;;4987373;28;20451;-82
2022/11/07 11:30:29;;;;;;;2.10;1.20;;;16.60;98.70;;;;;;4978801;28;20473;-84
2022/11/07 11:33:00;;;;;;;1.33;0.90;;;16.30;99.30;;;;;;4986153;28;20455;-83
2022/11/07 11:35:33;;;;;;;3.93;0.87;;;16.30;99.70;;;;;;4971920;28;20482;-83
2022/11/07 11:38:14;;;;;;;2.33;0.87;;;16.50;99.40;;;;;;4985414;28;20461;-84
2022/11/07 11:40:47;;;;;;;1.77;0.70;;;16.60;99.00;;;;;;4985280;28;20479;-83
2022/11/07 11:43:21;;;;;;;1.20;0.80;;;16.70;98.50;;;;;;4985463;28;20481;-84
2022/11/07 11:46:13;;;;;;;4.33;0.70;;;16.80;98.30;;;;;;4985860;28;20867;-82
2022/11/07 11:48:50;;;;;;;2.60;0.90;;;17.00;98.20;;;;;;4986228;28;20509;-84
2022/11/07 11:51:26;;;;;;;3.10;0.93;;;17.00;98.00;;;;;;4967993;28;20510;-85
2022/11/07 11:53:52;;;;;;;3.00;1.70;;;16.70;98.30;;;;;;4984476;28;20546;-85
2022/11/07 11:56:40;;;;;;;4.10;1.20;;;16.70;98.30;;;;;;4967094;28;20525;-84
2022/11/07 11:59:43;;;;;;;2.13;0.90;;;16.70;98.10;;;;;;4967354;28;20510;-83
2022/11/07 12:02:35;;;;;;;2.37;1.20;;;16.80;97.50;;;;;;4986934;28;20557;-83
2022/11/07 12:05:17;;;;;;;1.97;0.93;;;16.80;97.70;;;;;;4988745;28;20473;-83
2022/11/07 12:08:14;;;;;;;1.57;0.90;;;16.80;97.30;;;;;;4986739;28;20509;-84
2022/11/07 12:11:02;;;;;;;1.50;0.80;;;17.00;96.70;;;;;;4984185;28;20497;-82
2022/11/07 12:13:47;;;;;;;1.93;1.03;;;17.10;97.20;;;;;;4984920;28;20473;-83
2022/11/07 12:16:37;;;;;;;1.77;1.00;;;17.00;96.90;;;;;;4981205;28;20454;-82
2022/11/07 12:19:27;;;;;;;3.13;0.87;;;17.20;96.70;;;;;;4965121;28;21090;-82
2022/11/07 12:21:57;;;;;;;2.97;0.80;;;17.50;96.00;;;;;;4982886;28;20486;-83
2022/11/07 12:24:51;;;;;;;5.53;0.80;;;17.20;96.10;;;;;;4964539;28;20466;-83
2022/11/07 12:27:36;;;;;;;2.30;0.80;;;17.30;96.10;;;;;;4948002;28;20462;-84
2022/11/07 12:30:20;;;;;;;2.53;1.00;;;17.10;96.20;;;;;;4957217;28;21217;-83
2022/11/07 12:33:00;;;;;;;1.70;1.00;;;16.90;96.60;;;;;;4962312;28;20493;-82
2022/11/07 12:35:39;;;;;;;2.50;0.60;;;17.20;96.50;;;;;;4965188;28;20455;-83
2022/11/07 12:38:38;;;;;;;1.17;0.70;;;17.20;96.40;;;;;;4966223;28;20526;-81
2022/11/07 12:41:38;;;;;;;3.53;0.80;;;17.20;96.10;;;;;;4979989;28;20473;-83
2022/11/07 12:44:26;;;;;;;1.67;0.80;;;16.90;96.70;;;;;;4981998;28;20485;-84
2022/11/07 12:46:58;;;;;;;1.50;0.63;;;17.20;96.10;;;;;;4980790;28;20505;-82
2022/11/07 12:49:53;;;;;;;2.40;0.80;;;16.90;96.40;;;;;;4981270;28;20469;-84
2022/11/07 12:52:44;;;;;;;1.57;0.87;;;16.60;97.10;;;;;;4978947;28;20494;-83
2022/11/07 12:55:20;;;;;;;1.17;0.90;;;17.10;97.20;;;;;;4965802;28;20480;-84
2022/11/07 12:57:53;;;;;;;0.80;0.80;;;17.10;96.60;;;;;;4985899;28;20488;-83
2022/11/07 13:00:23;;;;;;;1.63;0.90;;;17.00;97.10;;;;;;4966666;28;21318;-85
2022/11/07 13:03:13;;;;;;;0.93;0.70;;;17.30;96.50;;;;;;4966390;28;20940;-82
2022/11/07 13:05:49;;;;;;;2.33;1.00;;;17.40;96.40;;;;;;4966750;28;20469;-83
2022/11/07 13:08:37;;;;;;;1.07;0.70;;;17.00;96.80;;;;;;4967182;28;20529;-84
2022/11/07 13:11:20;;;;;;;2.27;0.70;;;17.10;97.20;;;;;;4968820;28;20550;-83
2022/11/07 13:14:13;;;;;;;1.00;0.67;;;17.20;96.70;;;;;;4967759;28;20493;-84
2022/11/07 13:17:13;;;;;;;0.80;0.60;;;17.40;95.60;;;;;;4990719;28;20458;-83
2022/11/07 13:19:46;;;;;;;0.87;0.73;;;17.30;95.40;;;;;;4971202;28;20821;-84
2022/11/07 13:22:30;;;;;;;1.57;0.60;;;16.90;96.20;;;;;;4968989;28;20584;-83
2022/11/07 13:25:18;;;;;;;1.33;0.67;;;16.90;96.10;;;;;;4984696;28;20459;-82
2022/11/07 13:27:58;;;;;;;1.00;1.00;;;17.20;95.90;;;;;;4988303;28;20490;-83
2022/11/07 13:30:38;;;;;;;1.47;0.60;;;17.20;95.30;;;;;;4986420;28;20456;-82
2022/11/07 13:33:23;;;;;;;1.53;0.70;;;17.40;95.20;;;;;;4968262;28;20496;-84
2022/11/07 13:35:56;;;;;;;0.70;0.60;;;17.20;95.50;;;;;;4967941;28;20489;-83
2022/11/07 13:38:24;;;;;;;3.57;1.17;;;16.90;96.00;;;;;;4983963;28;20497;-82
2022/11/07 13:41:02;;;;;;;2.57;0.67;;;17.10;95.50;;;;;;4984277;28;20513;-83
2022/11/07 13:44:03;;;;;;;3.33;1.00;;;16.90;95.80;;;;;;4966727;28;20573;-82
2022/11/07 13:46:36;;;;;;;1.70;0.70;;;16.70;96.30;;;;;;4984788;28;20477;-82
2022/11/07 13:49:10;;;;;;;1.03;0.63;;;16.70;96.40;;;;;;4982825;28;20461;-83
2022/11/07 13:51:41;;;;;;;2.77;1.00;;;17.10;95.50;;;;;;4984752;28;20521;-83
2022/11/07 13:54:26;;;;;;;2.03;1.03;;;17.40;95.00;;;;;;4964883;28;20826;-84
2022/11/07 13:57:03;;;;;;;1.63;1.30;;;17.40;94.90;;;;;;4985731;28;20473;-83
2022/11/07 13:59:43;;;;;;;1.20;0.80;;;16.90;95.30;;;;;;4971826;28;20649;-82
2022/11/07 14:02:23;;;;;;;1.53;0.70;;;17.10;95.30;;;;;;4967333;28;20540;-81
2022/11/07 14:05:08;;;;;;;2.73;0.90;;;16.90;95.60;;;;;;4984478;28;21133;-84
2022/11/07 14:07:47;;;;;;;2.83;0.90;;;17.10;95.30;;;;;;4969443;28;21051;-83